Time;durP1;ratioP1;P1;durP2;ratioP2;P2;SDS_P1;SDS_P2;PMS_P1;PMS_P2;Temp;Humidity;BMP_temperature;BMP_pressure;BME280_temperature;BME280_humidity;BME280_pressure;Samples;Min_cycle;Max_cycle;Signal;HPM_P1;HPM_P2
2020/12/10 00:00:24;;;;;;;16.05;14.85;;;1.50;78.30;;;;;;5093260;29;20403;-80
2020/12/10 00:02:55;;;;;;;16.10;14.90;;;1.50;78.40;;;;;;5096794;29;20075;-79
2020/12/10 00:05:27;;;;;;;16.02;14.82;;;1.50;78.60;;;;;;5110263;28;20127;-79
2020/12/10 00:07:58;;;;;;;15.68;14.48;;;1.50;78.60;;;;;;5094677;29;20044;-80
2020/12/10 00:10:30;;;;;;;15.70;14.45;;;1.50;78.70;;;;;;5094149;29;20143;-82
2020/12/10 00:13:02;;;;;;;16.15;14.95;;;1.50;78.50;;;;;;5080088;29;20047;-80
2020/12/10 00:15:33;;;;;;;15.95;14.65;;;1.50;78.40;;;;;;5094685;29;20047;-80
2020/12/10 00:18:04;;;;;;;15.65;14.45;;;1.50;78.40;;;;;;5095824;29;20055;-81
2020/12/10 00:20:36;;;;;;;16.35;15.15;;;1.50;78.50;;;;;;5089397;29;20106;-81
2020/12/10 00:23:07;;;;;;;15.52;14.32;;;1.50;78.50;;;;;;5095275;29;20052;-80
2020/12/10 00:25:41;;;;;;;16.65;15.35;;;1.50;78.70;;;;;;5095136;29;20043;-80
2020/12/10 00:28:12;;;;;;;15.95;14.75;;;1.50;78.70;;;;;;5095369;29;20983;-81
2020/12/10 00:30:44;;;;;;;16.15;14.95;;;1.40;79.30;;;;;;5093507;29;20060;-81
2020/12/10 00:33:15;;;;;;;16.20;14.90;;;1.40;78.70;;;;;;5107706;28;20526;-81
2020/12/10 00:35:47;;;;;;;16.20;15.00;;;1.50;78.70;;;;;;5093720;29;20067;-82
2020/12/10 00:38:18;;;;;;;16.23;15.02;;;1.40;78.60;;;;;;5097074;29;20048;-82
2020/12/10 00:40:50;;;;;;;16.15;14.95;;;1.40;78.60;;;;;;5094871;29;20155;-80
2020/12/10 00:43:21;;;;;;;16.17;14.98;;;1.40;78.50;;;;;;5104062;29;20047;-81
2020/12/10 00:45:53;;;;;;;15.90;14.70;;;1.40;78.50;;;;;;5118413;28;20047;-81
2020/12/10 00:48:24;;;;;;;16.20;14.93;;;1.40;78.50;;;;;;5100660;29;20520;-81
2020/12/10 00:50:56;;;;;;;16.05;14.85;;;1.40;78.40;;;;;;5098981;29;20039;-81
2020/12/10 00:53:29;;;;;;;16.30;15.10;;;1.50;78.40;;;;;;5100516;29;20255;-80
2020/12/10 00:56:01;;;;;;;16.23;15.02;;;1.50;78.30;;;;;;5113759;28;20146;-81
2020/12/10 00:58:36;;;;;;;16.17;14.88;;;1.40;78.20;;;;;;5097508;29;20078;-80
2020/12/10 01:01:07;;;;;;;16.10;14.90;;;1.40;78.30;;;;;;5081365;29;20233;-82
2020/12/10 01:03:39;;;;;;;16.15;14.95;;;1.40;78.60;;;;;;5095635;29;20040;-81
2020/12/10 01:06:11;;;;;;;16.65;15.35;;;1.30;79.40;;;;;;5114140;28;20154;-81
2020/12/10 01:08:43;;;;;;;16.92;15.63;;;1.20;78.40;;;;;;5096466;29;20058;-80
2020/12/10 01:11:15;;;;;;;16.23;15.02;;;1.20;78.50;;;;;;5097755;29;20040;-79
2020/12/10 01:13:46;;;;;;;16.50;15.20;;;1.20;78.40;;;;;;5110130;28;20039;-81
2020/12/10 01:16:18;;;;;;;16.67;15.48;;;1.20;78.60;;;;;;5096663;29;20673;-81
2020/12/10 01:18:50;;;;;;;16.83;15.48;;;1.20;78.70;;;;;;5097864;29;20047;-79
2020/12/10 01:21:33;;;;;;;16.35;15.15;;;1.20;78.60;;;;;;5097412;29;20197;-80
2020/12/10 01:24:05;;;;;;;16.40;15.10;;;1.20;78.50;;;;;;5098175;29;20052;-79
2020/12/10 01:26:36;;;;;;;16.30;15.07;;;1.30;78.60;;;;;;5095298;29;20426;-80
2020/12/10 01:29:08;;;;;;;16.45;15.25;;;1.30;78.60;;;;;;5096802;29;20036;-80
2020/12/10 01:31:39;;;;;;;16.73;15.43;;;1.30;78.60;;;;;;5097552;29;20433;-80
2020/12/10 01:34:11;;;;;;;16.48;15.18;;;1.40;78.50;;;;;;5098729;29;20050;-80
2020/12/10 01:36:43;;;;;;;16.80;15.50;;;1.40;78.50;;;;;;5097513;29;20052;-80
2020/12/10 01:39:14;;;;;;;16.55;15.35;;;1.40;78.50;;;;;;5112812;28;20039;-80
2020/12/10 01:41:46;;;;;;;16.40;15.20;;;1.40;78.50;;;;;;5095608;29;20590;-81
2020/12/10 01:44:18;;;;;;;16.88;15.48;;;1.40;78.50;;;;;;5069385;29;20052;-79
2020/12/10 01:46:50;;;;;;;17.42;16.02;;;1.40;78.60;;;;;;5110133;28;20040;-79
2020/12/10 01:49:21;;;;;;;17.02;15.63;;;1.40;78.60;;;;;;5097098;29;20046;-80
2020/12/10 01:51:53;;;;;;;16.90;15.60;;;1.40;79.10;;;;;;5112357;28;20051;-80
2020/12/10 01:54:24;;;;;;;16.92;15.63;;;1.40;78.50;;;;;;5112014;28;20060;-82
2020/12/10 01:56:56;;;;;;;18.02;16.52;;;1.50;78.50;;;;;;5098174;29;20402;-81
2020/12/10 01:59:28;;;;;;;17.15;15.85;;;1.40;78.50;;;;;;5091478;29;20048;-82
2020/12/10 02:02:00;;;;;;;18.10;16.55;;;1.40;78.40;;;;;;5090111;29;20071;-81
2020/12/10 02:04:34;;;;;;;18.20;16.63;;;1.40;78.50;;;;;;5094302;29;20820;-82
2020/12/10 02:07:06;;;;;;;17.92;16.42;;;1.40;78.50;;;;;;5094993;29;20039;-83
2020/12/10 02:09:38;;;;;;;17.08;15.68;;;1.40;78.60;;;;;;5097454;29;20040;-82
2020/12/10 02:12:10;;;;;;;18.13;16.63;;;1.30;78.60;;;;;;5091872;29;20118;-82
2020/12/10 02:14:41;;;;;;;18.13;16.63;;;1.40;78.60;;;;;;5096490;29;20078;-83
2020/12/10 02:17:12;;;;;;;17.70;16.30;;;1.30;79.60;;;;;;5095285;29;20056;-80
2020/12/10 02:19:46;;;;;;;17.17;15.88;;;1.30;78.50;;;;;;5089965;29;20051;-80
2020/12/10 02:22:17;;;;;;;17.20;15.90;;;1.20;78.30;;;;;;5088380;29;20076;-81
2020/12/10 02:24:49;;;;;;;18.27;16.77;;;1.30;78.10;;;;;;5090855;29;20044;-80
2020/12/10 02:27:20;;;;;;;17.80;16.40;;;1.20;77.90;;;;;;5087750;29;20050;-80
2020/12/10 02:29:51;;;;;;;18.05;16.65;;;1.20;77.50;;;;;;5080672;29;20047;-81
2020/12/10 02:32:23;;;;;;;17.02;15.70;;;1.20;77.50;;;;;;5088480;29;20612;-80
2020/12/10 02:34:54;;;;;;;17.92;16.42;;;1.10;77.40;;;;;;5092220;29;20055;-79
2020/12/10 02:37:26;;;;;;;17.55;16.20;;;1.10;77.70;;;;;;5088056;29;20071;-80
2020/12/10 02:39:57;;;;;;;18.35;16.95;;;1.10;77.70;;;;;;5091954;29;20044;-79
2020/12/10 02:42:28;;;;;;;17.70;16.30;;;1.00;77.30;;;;;;5087251;29;20510;-80
2020/12/10 02:45:00;;;;;;;17.33;15.93;;;1.00;77.50;;;;;;5090778;29;20051;-80
2020/12/10 02:47:32;;;;;;;17.63;16.23;;;1.00;77.30;;;;;;5087966;29;20052;-81
2020/12/10 02:50:03;;;;;;;17.85;16.45;;;1.00;77.30;;;;;;5090086;29;20084;-81
2020/12/10 02:52:35;;;;;;;17.45;16.05;;;0.90;77.20;;;;;;5093206;29;20048;-80
2020/12/10 02:55:06;;;;;;;17.40;16.00;;;0.90;75.70;;;;;;5090532;29;20047;-81
2020/12/10 02:57:38;;;;;;;16.65;15.32;;;0.70;75.10;;;;;;5093632;29;20059;-80
2020/12/10 03:00:11;;;;;;;17.00;15.63;;;0.60;75.80;;;;;;5088039;29;20050;-81
2020/12/10 03:02:42;;;;;;;17.60;16.20;;;0.50;76.10;;;;;;5090289;29;20135;-80
2020/12/10 03:05:14;;;;;;;17.90;16.50;;;0.50;76.20;;;;;;5087782;29;20040;-82
2020/12/10 03:07:45;;;;;;;17.50;16.10;;;0.50;76.10;;;;;;5095026;29;20051;-80
2020/12/10 03:10:17;;;;;;;17.23;15.57;;;0.50;76.00;;;;;;5087278;29;20087;-80
2020/12/10 03:12:48;;;;;;;16.90;15.60;;;0.40;75.60;;;;;;5096011;29;20095;-81
2020/12/10 03:15:19;;;;;;;17.00;15.70;;;0.40;76.30;;;;;;5088581;29;20044;-80
2020/12/10 03:17:51;;;;;;;17.13;15.75;;;0.40;76.20;;;;;;5089976;29;20044;-81
2020/12/10 03:20:22;;;;;;;17.05;15.65;;;0.40;76.00;;;;;;5088773;29;20111;-80
2020/12/10 03:22:54;;;;;;;17.00;15.70;;;0.40;75.70;;;;;;5080046;29;20040;-80
2020/12/10 03:25:25;;;;;;;16.73;15.43;;;0.40;75.50;;;;;;5086696;29;20044;-80
2020/12/10 03:27:57;;;;;;;16.48;15.15;;;0.30;75.10;;;;;;5089894;29;20040;-80
2020/12/10 03:30:29;;;;;;;16.27;14.98;;;0.30;74.70;;;;;;5092906;29;20048;-80
2020/12/10 03:33:00;;;;;;;16.00;14.80;;;0.20;74.70;;;;;;5096803;29;20099;-80
2020/12/10 03:35:32;;;;;;;16.77;15.45;;;0.20;75.20;;;;;;5078604;29;20122;-80
2020/12/10 03:38:03;;;;;;;16.95;15.55;;;0.20;75.40;;;;;;5094555;29;20091;-80
2020/12/10 03:40:34;;;;;;;16.13;14.82;;;0.10;75.40;;;;;;5095325;29;20060;-80
2020/12/10 03:43:06;;;;;;;15.80;14.60;;;0.10;75.00;;;;;;5084685;29;20052;-80
2020/12/10 03:45:37;;;;;;;16.08;14.73;;;0.00;74.90;;;;;;5116101;28;20051;-81
2020/12/10 03:48:09;;;;;;;15.65;14.45;;;0.00;75.60;;;;;;5093135;29;20055;-80
2020/12/10 03:50:40;;;;;;;15.75;14.55;;;0.00;76.60;;;;;;5095839;29;20068;-80
2020/12/10 03:53:12;;;;;;;15.40;14.20;;;-0.10;75.90;;;;;;5094734;29;20056;-82
2020/12/10 03:55:43;;;;;;;15.93;14.63;;;-0.20;76.10;;;;;;5100747;29;20506;-80
2020/12/10 03:58:15;;;;;;;15.80;14.50;;;-0.20;76.50;;;;;;5102278;29;20102;-82
2020/12/10 04:00:46;;;;;;;16.15;14.93;;;-0.20;77.10;;;;;;5094434;29;20091;-81
2020/12/10 04:03:18;;;;;;;15.75;14.55;;;-0.20;77.00;;;;;;5108972;28;20044;-82
2020/12/10 04:05:49;;;;;;;15.20;14.00;;;-0.20;76.20;;;;;;5091907;29;20099;-80
2020/12/10 04:08:20;;;;;;;15.20;14.00;;;-0.30;75.80;;;;;;5088198;29;20051;-79
2020/12/10 04:10:52;;;;;;;14.32;13.23;;;-0.30;76.10;;;;;;5094651;29;20056;-79
2020/12/10 04:13:24;;;;;;;14.77;13.57;;;-0.40;74.60;;;;;;5109350;28;20048;-80
2020/12/10 04:15:55;;;;;;;14.70;13.60;;;-0.60;73.30;;;;;;5093935;29;20063;-81
2020/12/10 04:18:27;;;;;;;14.95;13.75;;;-0.70;75.10;;;;;;5092831;29;20048;-80
2020/12/10 04:20:58;;;;;;;14.30;13.20;;;-0.70;75.80;;;;;;5112431;28;20417;-82
2020/12/10 04:23:30;;;;;;;14.25;13.15;;;-0.80;75.60;;;;;;5087986;29;20103;-81
2020/12/10 04:26:02;;;;;;;13.75;12.73;;;-0.70;76.00;;;;;;5099817;29;20106;-83
2020/12/10 04:28:34;;;;;;;13.93;12.82;;;-0.80;76.40;;;;;;5102808;29;20095;-83
2020/12/10 04:31:05;;;;;;;14.15;13.05;;;-0.70;76.40;;;;;;5100810;29;20581;-79
2020/12/10 04:33:37;;;;;;;14.40;13.30;;;-0.70;76.40;;;;;;5100469;29;20058;-82
2020/12/10 04:36:09;;;;;;;15.48;14.02;;;-0.70;76.20;;;;;;5102637;29;20446;-83
2020/12/10 04:38:41;;;;;;;14.00;12.90;;;-0.80;76.60;;;;;;5111265;29;20047;-82
2020/12/10 04:41:12;;;;;;;14.27;13.02;;;-0.80;77.00;;;;;;5129391;28;20043;-82
2020/12/10 04:43:44;;;;;;;13.63;12.60;;;-0.70;77.00;;;;;;5110973;29;20052;-82
2020/12/10 04:46:18;;;;;;;14.57;13.40;;;-0.70;77.10;;;;;;5103085;29;20067;-81
2020/12/10 04:48:52;;;;;;;14.57;13.38;;;-0.70;77.10;;;;;;5108699;29;20058;-82
2020/12/10 04:51:25;;;;;;;13.27;12.27;;;-0.70;77.40;;;;;;5104294;29;20056;-82
2020/12/10 04:53:59;;;;;;;14.10;13.00;;;-0.60;77.30;;;;;;5101570;29;20127;-81
2020/12/10 04:56:30;;;;;;;14.00;12.90;;;-0.60;76.90;;;;;;5099680;29;20043;-82
2020/12/10 04:59:03;;;;;;;14.25;13.15;;;-0.60;76.90;;;;;;5119942;28;20525;-81
2020/12/10 05:01:35;;;;;;;13.50;12.40;;;-0.70;77.20;;;;;;5090803;29;20052;-82
2020/12/10 05:04:07;;;;;;;13.23;12.23;;;-0.60;76.90;;;;;;5104911;29;20130;-82
2020/12/10 05:06:49;;;;;;;13.35;12.35;;;-0.70;76.20;;;;;;5106377;29;20044;-82
2020/12/10 05:09:21;;;;;;;13.00;12.00;;;-0.70;75.50;;;;;;5108691;29;20044;-82
2020/12/10 05:11:54;;;;;;;13.52;12.43;;;-0.80;75.30;;;;;;5112714;29;20520;-82
2020/12/10 05:14:27;;;;;;;12.73;11.73;;;-0.90;75.40;;;;;;5103621;29;20048;-82
2020/12/10 05:17:11;;;;;;;12.27;11.38;;;-0.90;75.00;;;;;;5108392;29;20047;-83
2020/12/10 05:19:43;;;;;;;12.07;11.18;;;-1.00;74.10;;;;;;5127496;28;20094;-83
2020/12/10 05:22:14;;;;;;;12.32;11.43;;;-1.00;73.80;;;;;;5110664;29;20048;-83
2020/12/10 05:24:46;;;;;;;11.77;10.88;;;-1.10;73.70;;;;;;5088644;29;20071;-83
2020/12/10 05:27:22;;;;;;;11.68;10.77;;;-1.20;74.10;;;;;;5110472;29;20096;-83
2020/12/10 05:29:54;;;;;;;11.38;10.48;;;-1.20;74.10;;;;;;5100598;29;20490;-83
2020/12/10 05:32:36;;;;;;;11.10;10.30;;;-1.20;73.80;;;;;;5087480;29;20052;-83
2020/12/10 05:35:14;;;;;;;11.48;10.57;;;-1.30;73.50;;;;;;5116891;28;20054;-83
2020/12/10 05:37:46;;;;;;;11.57;10.60;;;-1.40;73.00;;;;;;5106165;29;20119;-83
2020/12/10 05:40:18;;;;;;;11.68;10.77;;;-1.50;73.40;;;;;;5095862;29;20040;-84
2020/12/10 05:42:51;;;;;;;11.32;10.43;;;-1.50;74.30;;;;;;5102718;29;20063;-83
2020/12/10 05:45:23;;;;;;;11.43;10.43;;;-1.60;74.00;;;;;;5097787;29;20837;-83
2020/12/10 05:48:01;;;;;;;10.43;9.63;;;-1.70;73.60;;;;;;5092196;29;20040;-83
2020/12/10 05:50:34;;;;;;;10.88;10.02;;;-1.80;73.40;;;;;;5101903;29;20055;-82
2020/12/10 05:53:08;;;;;;;10.55;9.75;;;-1.80;73.50;;;;;;5104780;29;20075;-82
2020/12/10 05:55:49;;;;;;;10.57;9.68;;;-1.90;73.70;;;;;;5104283;29;20135;-81
2020/12/10 05:58:20;;;;;;;10.85;9.95;;;-2.00;73.80;;;;;;5094296;29;20095;-78
2020/12/10 06:00:52;;;;;;;11.40;10.27;;;-2.00;74.20;;;;;;5093350;29;20106;-79
2020/12/10 06:03:25;;;;;;;11.40;10.40;;;-2.10;74.70;;;;;;5093239;29;20068;-77
2020/12/10 06:06:02;;;;;;;11.27;10.27;;;-2.10;75.00;;;;;;5096873;29;20051;-77
2020/12/10 06:08:38;;;;;;;11.80;10.77;;;-2.00;75.40;;;;;;5099300;29;20048;-78
2020/12/10 06:11:17;;;;;;;12.30;11.10;;;-2.10;75.70;;;;;;5090450;29;20510;-77
2020/12/10 06:13:48;;;;;;;12.18;11.07;;;-2.00;76.20;;;;;;5091789;29;20181;-77
2020/12/10 06:16:20;;;;;;;12.38;11.07;;;-2.10;76.70;;;;;;5095441;29;20047;-78
2020/12/10 06:19:06;;;;;;;11.82;10.73;;;-2.00;76.90;;;;;;5091576;29;20055;-78
2020/12/10 06:21:38;;;;;;;15.30;13.70;;;-2.10;77.20;;;;;;5093402;29;20095;-77
2020/12/10 06:24:25;;;;;;;14.63;13.13;;;-2.00;78.10;;;;;;5096585;29;20056;-78
2020/12/10 06:26:57;;;;;;;15.30;13.70;;;-2.00;77.60;;;;;;5090376;29;20100;-77
2020/12/10 06:29:34;;;;;;;16.40;14.63;;;-1.90;77.80;;;;;;5079794;29;20047;-80
2020/12/10 06:32:07;;;;;;;15.57;13.73;;;-1.90;77.80;;;;;;5091844;29;20213;-77
2020/12/10 06:34:54;;;;;;;16.58;13.80;;;-1.90;77.30;;;;;;5092565;29;20055;-77
2020/12/10 06:37:28;;;;;;;13.85;12.35;;;-1.90;77.00;;;;;;5091819;29;20076;-78
2020/12/10 06:40:03;;;;;;;15.35;13.75;;;-1.90;77.20;;;;;;5105086;28;20059;-77
2020/12/10 06:42:48;;;;;;;12.70;11.50;;;-1.90;77.00;;;;;;5096729;29;20513;-77
2020/12/10 06:45:32;;;;;;;12.57;11.43;;;-1.90;76.70;;;;;;5093640;29;20042;-78
2020/12/10 06:48:06;;;;;;;11.57;10.57;;;-1.90;76.70;;;;;;5078366;29;20035;-77
2020/12/10 06:50:39;;;;;;;10.98;10.07;;;-1.80;76.80;;;;;;5096694;29;20070;-74
2020/12/10 06:53:21;;;;;;;10.05;9.25;;;-1.80;76.60;;;;;;5096196;29;20047;-76
2020/12/10 06:56:01;;;;;;;10.57;9.68;;;-1.90;76.90;;;;;;5095026;29;20050;-73
2020/12/10 06:58:36;;;;;;;10.23;9.43;;;-1.90;76.60;;;;;;5095924;29;20062;-73
2020/12/10 07:01:35;;;;;;;10.13;9.32;;;-1.90;76.50;;;;;;5091832;29;20044;-73
2020/12/10 07:04:33;;;;;;;10.30;9.40;;;-1.90;76.60;;;;;;5097455;29;20075;-73
2020/12/10 07:07:17;;;;;;;11.20;10.30;;;-1.90;77.10;;;;;;5096930;29;20075;-73
2020/12/10 07:09:54;;;;;;;11.15;10.15;;;-1.90;77.20;;;;;;5092971;29;20087;-76
2020/12/10 07:12:41;;;;;;;11.10;10.25;;;-1.80;77.50;;;;;;5088816;29;20051;-75
2020/12/10 07:15:25;;;;;;;11.18;10.30;;;-1.80;77.40;;;;;;5092832;29;20040;-73
2020/12/10 07:17:58;;;;;;;10.70;9.80;;;-1.80;77.30;;;;;;5078836;29;20071;-76
2020/12/10 07:20:30;;;;;;;10.18;9.38;;;-1.70;77.40;;;;;;5093546;29;20518;-74
2020/12/10 07:23:02;;;;;;;9.80;9.00;;;-1.70;77.70;;;;;;5109444;28;20048;-75
2020/12/10 07:25:33;;;;;;;9.63;8.82;;;-1.60;77.50;;;;;;5096583;29;21311;-74
2020/12/10 07:28:05;;;;;;;9.80;9.00;;;-1.60;77.20;;;;;;5094753;29;20039;-74
2020/12/10 07:30:36;;;;;;;9.88;9.07;;;-1.60;77.10;;;;;;5093556;29;21808;-74
2020/12/10 07:33:08;;;;;;;9.10;8.30;;;-1.60;77.10;;;;;;5096129;29;20466;-77
2020/12/10 07:35:40;;;;;;;10.43;9.48;;;-1.60;77.10;;;;;;5097313;29;20062;-75
2020/12/10 07:38:15;;;;;;;9.60;8.70;;;-1.50;78.10;;;;;;5112985;28;20075;-76
2020/12/10 07:40:56;;;;;;;9.90;9.10;;;-1.50;77.30;;;;;;5095395;29;20655;-75
2020/12/10 07:43:27;;;;;;;9.68;8.90;;;-1.50;77.00;;;;;;5094993;29;20118;-76
2020/12/10 07:45:59;;;;;;;9.25;8.35;;;-1.50;76.80;;;;;;5094355;29;20048;-76
2020/12/10 07:48:36;;;;;;;9.35;8.52;;;-1.50;76.20;;;;;;5082740;29;20712;-75
2020/12/10 07:51:16;;;;;;;8.85;8.13;;;-1.50;77.70;;;;;;5095122;29;20047;-77
2020/12/10 07:53:48;;;;;;;9.85;9.05;;;-1.50;76.60;;;;;;5101190;28;20056;-76
2020/12/10 07:56:26;;;;;;;9.70;8.90;;;-1.50;76.60;;;;;;5094346;29;20058;-78
2020/12/10 07:59:32;;;;;;;10.52;9.63;;;-1.40;76.70;;;;;;5098489;29;20139;-76
2020/12/10 08:02:09;;;;;;;10.55;9.65;;;-1.40;77.40;;;;;;5059379;29;20079;-77
2020/12/10 08:04:42;;;;;;;10.80;9.80;;;-1.40;77.70;;;;;;5095945;29;20091;-77
2020/12/10 08:07:14;;;;;;;9.80;9.00;;;-1.30;76.60;;;;;;5098202;29;20047;-77
2020/12/10 08:09:49;;;;;;;10.05;9.05;;;-1.30;77.10;;;;;;5101464;28;20106;-76
2020/12/10 08:12:25;;;;;;;9.73;8.93;;;-1.30;76.60;;;;;;5068719;29;20051;-77
2020/12/10 08:14:57;;;;;;;9.77;8.90;;;-1.30;75.90;;;;;;5096903;29;20069;-78
2020/12/10 08:17:31;;;;;;;9.52;8.73;;;-1.30;75.70;;;;;;5094232;29;20044;-74
2020/12/10 08:20:04;;;;;;;9.20;8.50;;;-1.30;76.10;;;;;;5098649;29;20059;-76
2020/12/10 08:22:36;;;;;;;9.52;8.80;;;-1.30;76.20;;;;;;5099425;29;20054;-76
2020/12/10 08:25:17;;;;;;;9.90;9.10;;;-1.30;76.10;;;;;;5094110;29;20120;-75
2020/12/10 08:27:48;;;;;;;9.23;8.43;;;-1.30;76.00;;;;;;5098796;29;20044;-79
2020/12/10 08:30:20;;;;;;;9.82;8.93;;;-1.30;76.00;;;;;;5098698;29;20099;-76
2020/12/10 08:32:52;;;;;;;9.50;8.60;;;-1.30;75.60;;;;;;5098075;29;20043;-76
2020/12/10 08:35:24;;;;;;;9.70;8.80;;;-1.30;75.50;;;;;;5096796;29;20131;-76
2020/12/10 08:37:55;;;;;;;9.40;8.65;;;-1.30;75.40;;;;;;5095877;29;20069;-76
2020/12/10 08:40:28;;;;;;;9.00;8.30;;;-1.30;75.20;;;;;;5102546;29;20449;-76
2020/12/10 08:43:10;;;;;;;8.98;8.27;;;-1.20;74.40;;;;;;5096970;29;20043;-76
2020/12/10 08:45:46;;;;;;;8.95;8.25;;;-1.20;74.60;;;;;;5100416;28;20046;-76
2020/12/10 08:48:25;;;;;;;8.48;7.78;;;-1.10;74.90;;;;;;5099022;29;20050;-76
2020/12/10 08:50:59;;;;;;;8.93;8.10;;;-1.10;74.40;;;;;;5096637;29;20047;-76
2020/12/10 08:53:31;;;;;;;9.63;8.80;;;-1.10;74.40;;;;;;5099035;29;20160;-77
2020/12/10 08:56:04;;;;;;;8.98;8.20;;;-1.10;73.70;;;;;;5084525;29;20047;-76
2020/12/10 08:58:39;;;;;;;9.20;8.30;;;-1.00;73.80;;;;;;5100396;29;20074;-77
2020/12/10 09:01:10;;;;;;;9.18;8.38;;;-1.00;73.70;;;;;;5100392;29;20044;-76
2020/12/10 09:03:43;;;;;;;9.05;8.25;;;-1.00;72.60;;;;;;5099704;28;20554;-76
2020/12/10 09:06:15;;;;;;;9.40;8.55;;;-1.00;72.90;;;;;;5093942;29;20087;-76
2020/12/10 09:08:46;;;;;;;8.93;8.15;;;-0.90;72.90;;;;;;5099808;29;20040;-77
2020/12/10 09:11:18;;;;;;;8.55;7.85;;;-0.90;72.70;;;;;;5097037;29;20522;-76
2020/12/10 09:13:49;;;;;;;8.13;7.43;;;-0.90;72.60;;;;;;5097582;28;20043;-76
2020/12/10 09:16:21;;;;;;;8.75;8.05;;;-0.80;72.40;;;;;;5098455;29;20051;-75
2020/12/10 09:18:52;;;;;;;9.13;8.32;;;-0.80;72.30;;;;;;5098040;28;20067;-77
2020/12/10 09:21:24;;;;;;;9.48;8.57;;;-0.80;72.20;;;;;;5096482;29;20044;-74
2020/12/10 09:23:55;;;;;;;11.70;8.10;;;-0.80;72.40;;;;;;5093099;29;20040;-76
2020/12/10 09:26:27;;;;;;;8.02;7.22;;;-0.80;72.10;;;;;;5096882;29;20040;-77
2020/12/10 09:29:01;;;;;;;8.73;7.93;;;-0.80;71.70;;;;;;5094366;29;20044;-77
2020/12/10 09:31:32;;;;;;;9.00;8.20;;;-0.70;71.90;;;;;;5097522;29;20138;-77
2020/12/10 09:34:04;;;;;;;9.07;8.35;;;-0.60;72.00;;;;;;5092375;29;20059;-76
2020/12/10 09:36:35;;;;;;;9.30;8.50;;;-0.60;72.10;;;;;;5097707;29;20051;-76
2020/12/10 09:39:07;;;;;;;9.27;8.48;;;-0.50;71.00;;;;;;5089942;29;20130;-80
2020/12/10 09:41:43;;;;;;;9.85;8.95;;;-0.60;70.80;;;;;;5063054;29;20044;-77
2020/12/10 09:44:14;;;;;;;10.98;9.98;;;-0.60;71.70;;;;;;5091630;29;20039;-77
2020/12/10 09:46:45;;;;;;;10.35;9.35;;;-0.50;72.80;;;;;;5093135;29;20443;-79
2020/12/10 09:49:17;;;;;;;10.10;9.10;;;-0.40;72.50;;;;;;5096956;29;20445;-76
2020/12/10 09:51:54;;;;;;;12.30;10.98;;;-0.30;73.10;;;;;;5095593;29;20048;-76
2020/12/10 09:59:33;;;;;;;10.82;9.82;;;-0.10;73.10;;;;;;5096745;29;20723;-75
2020/12/10 10:02:04;;;;;;;11.88;10.70;;;-0.10;72.50;;;;;;5091747;29;20079;-75
2020/12/10 10:04:36;;;;;;;11.50;10.48;;;0.00;73.30;;;;;;5096641;29;20544;-74
2020/12/10 10:07:07;;;;;;;11.85;10.82;;;0.00;73.30;;;;;;5096874;29;20043;-75
2020/12/10 10:09:40;;;;;;;12.95;11.75;;;0.20;74.00;;;;;;5097870;29;20714;-75
2020/12/10 10:12:12;;;;;;;12.60;11.50;;;0.30;74.20;;;;;;5093526;29;20051;-76
2020/12/10 10:14:44;;;;;;;11.45;10.45;;;0.50;73.80;;;;;;5093342;29;20051;-79
2020/12/10 10:17:15;;;;;;;12.40;11.30;;;0.60;73.80;;;;;;5097946;29;20059;-76
2020/12/10 10:19:47;;;;;;;11.63;10.52;;;0.80;73.10;;;;;;5094668;29;20476;-76
2020/12/10 10:22:19;;;;;;;11.57;10.48;;;0.90;73.00;;;;;;5111610;28;20040;-77
2020/12/10 10:24:50;;;;;;;12.52;11.40;;;1.00;72.80;;;;;;5091326;29;20052;-78
2020/12/10 10:27:22;;;;;;;12.43;11.23;;;1.10;71.40;;;;;;5095808;29;20048;-76
2020/12/10 10:29:53;;;;;;;12.18;11.07;;;1.20;72.00;;;;;;5109436;28;20040;-75
2020/12/10 10:32:25;;;;;;;12.55;11.45;;;1.30;71.90;;;;;;5096384;29;20043;-80
2020/12/10 10:34:57;;;;;;;12.40;11.30;;;1.30;71.40;;;;;;5096539;29;20054;-78
2020/12/10 10:37:29;;;;;;;12.48;11.18;;;1.40;71.20;;;;;;5095051;29;20055;-78
2020/12/10 10:40:00;;;;;;;11.93;10.85;;;1.30;69.00;;;;;;5081418;29;20056;-80
2020/12/10 10:42:36;;;;;;;12.95;11.75;;;1.10;69.60;;;;;;5097527;29;20047;-80
2020/12/10 10:45:09;;;;;;;12.27;11.18;;;1.00;70.20;;;;;;5094726;29;20059;-78
2020/12/10 10:47:43;;;;;;;11.30;10.20;;;1.10;70.80;;;;;;5097906;29;20065;-79
2020/12/10 10:50:14;;;;;;;11.93;10.82;;;1.10;71.10;;;;;;5097169;29;20130;-76
2020/12/10 10:52:46;;;;;;;12.55;11.35;;;1.30;71.00;;;;;;5096020;28;20044;-77
2020/12/10 10:55:17;;;;;;;12.95;11.65;;;1.40;71.20;;;;;;5091872;29;20338;-76
2020/12/10 10:57:48;;;;;;;12.20;10.90;;;1.40;70.40;;;;;;5093788;29;21281;-74
2020/12/10 11:00:20;;;;;;;12.30;11.20;;;1.50;70.90;;;;;;5105916;28;20052;-74
2020/12/10 11:02:51;;;;;;;12.95;11.75;;;1.60;69.50;;;;;;5095225;29;20104;-75
2020/12/10 11:05:23;;;;;;;13.10;11.90;;;1.50;70.20;;;;;;5097318;29;20052;-75
2020/12/10 11:07:56;;;;;;;12.80;11.60;;;1.40;69.60;;;;;;5092102;29;20036;-76
2020/12/10 11:10:27;;;;;;;12.88;11.68;;;1.40;69.90;;;;;;5098053;29;20036;-77
2020/12/10 11:13:00;;;;;;;11.82;10.82;;;1.40;70.40;;;;;;5102058;28;20493;-75
2020/12/10 11:15:32;;;;;;;12.57;11.48;;;1.50;70.60;;;;;;5094705;29;20051;-76
2020/12/10 11:18:04;;;;;;;12.85;11.65;;;1.60;69.70;;;;;;5092448;29;20769;-76
2020/12/10 11:20:35;;;;;;;12.43;11.32;;;1.70;69.50;;;;;;5090332;29;20097;-76
2020/12/10 11:23:07;;;;;;;12.52;11.40;;;1.60;68.30;;;;;;5091475;28;20046;-77
2020/12/10 11:25:38;;;;;;;13.57;12.25;;;1.50;68.80;;;;;;5092775;29;20043;-77
2020/12/10 11:28:10;;;;;;;14.65;13.20;;;1.60;68.90;;;;;;5095517;29;20052;-76
2020/12/10 11:30:41;;;;;;;14.52;13.13;;;1.60;67.30;;;;;;5094703;29;20050;-78
2020/12/10 11:33:13;;;;;;;14.38;13.07;;;1.50;67.90;;;;;;5094866;28;20106;-74
2020/12/10 11:35:44;;;;;;;14.13;12.82;;;1.60;67.90;;;;;;5094853;29;20055;-79
2020/12/10 11:38:16;;;;;;;14.10;12.80;;;1.70;67.90;;;;;;5092213;29;20464;-78
2020/12/10 11:40:47;;;;;;;15.32;13.93;;;1.70;67.20;;;;;;5093422;29;20047;-74
2020/12/10 11:43:19;;;;;;;14.40;13.05;;;1.80;68.30;;;;;;5078835;29;20490;-74
2020/12/10 11:45:50;;;;;;;14.32;13.00;;;1.80;67.30;;;;;;5095097;29;20047;-75
2020/12/10 11:48:22;;;;;;;13.35;12.05;;;1.90;67.90;;;;;;5111152;28;20107;-75
2020/12/10 11:50:53;;;;;;;13.70;12.40;;;1.90;67.20;;;;;;5095844;29;20054;-75
2020/12/10 11:53:32;;;;;;;14.30;13.00;;;2.10;67.80;;;;;;5093525;29;20443;-75
2020/12/10 11:56:04;;;;;;;13.95;12.50;;;2.10;67.30;;;;;;5096486;29;20156;-76
2020/12/10 11:58:35;;;;;;;14.10;12.80;;;2.20;67.50;;;;;;5097795;29;20055;-76
2020/12/10 12:01:07;;;;;;;14.60;13.10;;;2.30;68.40;;;;;;5095767;29;20122;-77
2020/12/10 12:03:39;;;;;;;16.05;14.35;;;2.40;67.90;;;;;;5100060;28;20031;-77
2020/12/10 12:06:10;;;;;;;16.23;14.50;;;2.40;67.90;;;;;;5095305;29;20152;-77
2020/12/10 12:08:42;;;;;;;14.30;12.98;;;2.50;68.30;;;;;;5094004;29;20501;-79
2020/12/10 12:11:14;;;;;;;15.10;13.70;;;2.50;68.30;;;;;;5110488;28;20044;-77
2020/12/10 12:13:45;;;;;;;16.10;14.40;;;2.50;67.80;;;;;;5100025;28;20130;-77
2020/12/10 12:16:17;;;;;;;14.73;13.32;;;2.60;68.70;;;;;;5097697;29;20465;-77
2020/12/10 12:18:49;;;;;;;14.02;12.73;;;2.70;68.40;;;;;;5092340;29;20040;-79
2020/12/10 12:21:25;;;;;;;15.20;13.80;;;2.70;68.10;;;;;;5092228;29;20067;-78
2020/12/10 12:23:57;;;;;;;13.98;12.68;;;2.80;68.20;;;;;;5079990;29;20039;-76
2020/12/10 12:26:31;;;;;;;14.35;12.98;;;2.80;68.50;;;;;;5094249;29;20506;-76
2020/12/10 12:29:03;;;;;;;14.63;13.23;;;2.70;67.80;;;;;;5105998;28;20532;-76
2020/12/10 12:31:35;;;;;;;14.65;13.25;;;2.80;68.10;;;;;;5090869;29;20054;-75
2020/12/10 12:34:10;;;;;;;15.10;13.63;;;2.70;67.00;;;;;;5081735;29;20102;-78
2020/12/10 12:36:44;;;;;;;14.60;13.20;;;2.70;66.30;;;;;;5097900;28;20075;-76
2020/12/10 12:39:15;;;;;;;14.05;12.73;;;2.60;66.60;;;;;;5094523;29;20036;-76
2020/12/10 12:41:57;;;;;;;15.13;13.63;;;2.50;67.40;;;;;;5098806;29;20044;-76
2020/12/10 12:44:28;;;;;;;14.70;13.20;;;2.50;68.20;;;;;;5068478;29;20459;-77
2020/12/10 12:47:00;;;;;;;15.05;13.45;;;2.50;68.10;;;;;;5100348;29;20043;-78
2020/12/10 12:49:33;;;;;;;14.18;12.80;;;2.60;67.80;;;;;;5116727;28;20040;-78
2020/12/10 12:52:25;;;;;;;14.73;13.32;;;2.50;66.10;;;;;;5095705;28;20559;-77
2020/12/10 12:54:57;;;;;;;14.48;13.07;;;2.30;68.10;;;;;;5096781;29;20867;-77
2020/12/10 12:57:28;;;;;;;14.00;12.70;;;2.30;68.60;;;;;;5111445;28;20039;-77
2020/12/10 13:00:00;;;;;;;14.18;12.80;;;2.40;68.20;;;;;;5103695;29;20043;-76
2020/12/10 13:02:34;;;;;;;15.50;13.90;;;2.50;68.40;;;;;;5100445;29;20059;-79
2020/12/10 13:05:06;;;;;;;14.30;12.90;;;2.50;67.20;;;;;;5099902;29;20051;-79
2020/12/10 13:07:37;;;;;;;15.60;14.00;;;2.50;67.40;;;;;;5115362;28;20115;-77
2020/12/10 13:10:09;;;;;;;15.32;13.82;;;2.50;67.40;;;;;;5098480;29;20054;-77